Time;durP1;ratioP1;P1;durP2;ratioP2;P2;SDS_P1;SDS_P2;PMS_P1;PMS_P2;Temp;Humidity;BMP_temperature;BMP_pressure;BME280_temperature;BME280_humidity;BME280_pressure;Samples;Min_cycle;Max_cycle;Signal;HPM_P1;HPM_P2
2022/10/18 00:02:05;;;;;;;16.23;7.03;;;;;;;15.32;100.00;102119.75;5035704;28;20041;-57
2022/10/18 00:04:32;;;;;;;15.05;7.03;;;;;;;15.32;100.00;102118.91;5035626;28;20053;-56
2022/10/18 00:06:59;;;;;;;14.55;7.15;;;;;;;15.34;100.00;102122.25;5035756;28;20048;-57
2022/10/18 00:09:26;;;;;;;17.73;7.95;;;;;;;15.34;100.00;102124.94;5019758;28;20050;-57
2022/10/18 00:11:54;;;;;;;16.75;8.13;;;;;;;15.32;100.00;102114.38;5031258;28;20049;-57
2022/10/18 00:14:21;;;;;;;14.93;7.47;;;;;;;15.35;100.00;102121.25;5016231;28;20100;-56
2022/10/18 00:16:48;;;;;;;13.90;7.20;;;;;;;15.36;100.00;102115.75;5016174;28;20038;-56
2022/10/18 00:19:14;;;;;;;17.48;8.20;;;;;;;15.31;100.00;102112.69;5017123;28;20054;-56
2022/10/18 00:21:41;;;;;;;15.85;8.20;;;;;;;15.31;100.00;102111.88;5035798;28;20083;-57
2022/10/18 00:24:13;;;;;;;21.33;8.93;;;;;;;15.24;100.00;102113.47;5034285;28;20041;-57
2022/10/18 00:26:40;;;;;;;18.38;8.55;;;;;;;15.30;100.00;102112.88;5035373;28;20522;-57
2022/10/18 00:29:06;;;;;;;17.90;8.35;;;;;;;15.34;100.00;102103.56;5034487;28;20128;-57
2022/10/18 00:31:35;;;;;;;16.02;8.23;;;;;;;15.34;100.00;102108.91;5035948;28;20119;-57
2022/10/18 00:34:08;;;;;;;15.45;8.27;;;;;;;15.35;100.00;102105.22;5035278;28;20491;-57
2022/10/18 00:36:35;;;;;;;18.45;8.63;;;;;;;15.36;100.00;102097.03;5035497;28;20041;-57
2022/10/18 00:39:04;;;;;;;15.70;8.27;;;;;;;15.38;100.00;102099.56;5023293;28;20042;-57
2022/10/18 00:41:33;;;;;;;16.42;8.70;;;;;;;15.40;100.00;102091.41;5015499;28;20050;-57
2022/10/18 00:44:05;;;;;;;20.55;9.18;;;;;;;15.38;100.00;102094.22;5047060;28;20042;-57
2022/10/18 00:46:35;;;;;;;19.17;9.00;;;;;;;15.38;100.00;102093.38;5015515;28;20046;-57
2022/10/18 00:49:10;;;;;;;16.63;8.57;;;;;;;15.40;100.00;102102.09;5015692;28;20050;-57
2022/10/18 00:51:43;;;;;;;22.02;8.95;;;;;;;15.43;100.00;102099.97;4958472;28;20133;-57
2022/10/18 00:54:12;;;;;;;19.67;9.25;;;;;;;15.41;100.00;102098.41;4994290;28;20050;-57
2022/10/18 00:56:39;;;;;;;18.38;8.95;;;;;;;15.42;100.00;102090.25;4995463;28;20089;-57
2022/10/18 00:59:06;;;;;;;19.60;8.63;;;;;;;15.44;100.00;102085.56;4995572;28;20096;-57
2022/10/18 01:01:33;;;;;;;16.70;8.07;;;;;;;15.43;100.00;102085.75;4995719;28;20050;-57
2022/10/18 01:04:00;;;;;;;17.00;8.80;;;;;;;15.43;100.00;102088.44;4995032;28;20047;-56
2022/10/18 01:06:27;;;;;;;19.95;8.98;;;;;;;15.43;100.00;102083.09;4994014;28;20129;-56
2022/10/18 01:12:15;;;;;;;19.50;9.32;;;;;;;15.45;100.00;102073.91;5103047;27;20496;-56
2022/10/18 01:15:22;;;;;;;24.17;10.50;;;;;;;15.43;100.00;102081.25;5070059;28;20056;-57
2022/10/18 01:18:12;;;;;;;22.00;10.70;;;;;;;15.38;100.00;102070.16;5091996;28;20414;-57
2022/10/18 01:24:16;;;;;;;21.48;9.65;;;;;;;15.40;100.00;102076.19;5113970;27;20209;-57
2022/10/18 01:27:23;;;;;;;20.80;9.77;;;;;;;15.38;100.00;102070.16;5089937;28;20047;-57
2022/10/18 01:32:48;;;;;;;17.05;9.55;;;;;;;15.36;100.00;102072.97;5133412;27;20147;-57
2022/10/18 01:35:20;;;;;;;20.20;9.27;;;;;;;15.36;100.00;102075.66;5131632;28;20043;-57
2022/10/18 01:37:48;;;;;;;20.38;10.25;;;;;;;15.38;100.00;102075.50;5131215;28;20054;-56
2022/10/18 01:40:19;;;;;;;20.17;9.85;;;;;;;15.37;100.00;102076.47;5131328;28;20043;-57
2022/10/18 01:42:48;;;;;;;21.37;9.43;;;;;;;15.36;100.00;102074.81;5131080;28;20044;-56
2022/10/18 01:45:15;;;;;;;25.98;9.77;;;;;;;15.33;100.00;102077.78;5131237;28;20104;-56
2022/10/18 01:47:45;;;;;;;19.60;10.07;;;;;;;15.35;100.00;102075.81;5131345;28;20082;-57
2022/10/18 01:50:13;;;;;;;19.58;10.25;;;;;;;15.34;100.00;102069.63;5130989;28;20096;-56
2022/10/18 01:52:49;;;;;;;18.90;10.02;;;;;;;15.32;100.00;102074.28;5073401;28;20492;-57
2022/10/18 01:55:17;;;;;;;20.13;9.35;;;;;;;15.34;100.00;102074.97;5131293;28;20054;-57
2022/10/18 01:58:04;;;;;;;18.67;9.93;;;;;;;15.33;100.00;102067.09;5131095;28;20039;-57
2022/10/18 02:00:40;;;;;;;19.60;10.05;;;;;;;15.21;100.00;102065.63;5131130;28;20071;-57
2022/10/18 02:03:20;;;;;;;21.67;10.27;;;;;;;15.29;100.00;102076.44;5131058;28;20138;-56
2022/10/18 02:06:00;;;;;;;16.90;10.18;;;;;;;15.31;100.00;102072.59;5130227;28;20047;-57
2022/10/18 02:08:49;;;;;;;18.90;9.50;;;;;;;15.32;100.00;102076.13;5130721;28;20047;-57
2022/10/18 02:11:17;;;;;;;24.45;9.93;;;;;;;15.32;100.00;102066.28;5130392;28;20047;-57
2022/10/18 02:13:49;;;;;;;20.10;10.65;;;;;;;15.31;100.00;102069.91;5130585;28;20466;-57
2022/10/18 02:16:20;;;;;;;18.75;10.10;;;;;;;15.33;100.00;102070.63;5130448;28;20396;-56
2022/10/18 02:18:51;;;;;;;;;;;;;;;15.30;100.00;102067.44;5130956;28;20496;-57
2022/10/18 02:21:20;;;;;;;18.25;10.05;;;;;;;15.33;100.00;102067.09;5130733;28;19926;-57
2022/10/18 02:23:47;;;;;;;19.98;10.93;;;;;;;15.34;100.00;102066.94;5130410;28;20093;-57
2022/10/18 02:26:15;;;;;;;20.27;10.15;;;;;;;15.37;100.00;102071.13;5112179;28;20051;-56
2022/10/18 02:28:42;;;;;;;18.08;10.27;;;;;;;15.35;100.00;102067.78;5130530;28;20047;-57
2022/10/18 02:31:29;;;;;;;22.67;10.77;;;;;;;15.36;100.00;102067.63;5130169;28;20091;-57
2022/10/18 02:34:20;;;;;;;24.58;11.05;;;;;;;15.34;100.00;102066.94;5130114;28;20039;-57
2022/10/18 02:36:53;;;;;;;20.13;11.02;;;;;;;15.35;100.00;102063.31;5130196;28;20093;-56
2022/10/18 02:39:26;;;;;;;19.45;10.52;;;;;;;15.36;100.00;102069.47;5130272;28;20461;-58
2022/10/18 02:41:54;;;;;;;21.15;10.07;;;;;;;15.39;100.00;102074.53;5129359;28;20032;-57
2022/10/18 02:44:21;;;;;;;21.15;9.82;;;;;;;15.34;100.00;102074.13;5081392;28;20043;-57
2022/10/18 02:46:47;;;;;;;25.38;11.20;;;;;;;15.24;100.00;102076.88;5116396;28;20043;-57
2022/10/18 02:49:14;;;;;;;24.20;10.82;;;;;;;15.25;100.00;102070.53;5098460;28;20100;-57
2022/10/18 02:51:41;;;;;;;24.45;10.52;;;;;;;15.26;100.00;102076.72;5060286;28;20035;-57
2022/10/18 02:54:07;;;;;;;23.33;10.23;;;;;;;15.22;100.00;102078.03;5098038;28;20040;-57
2022/10/18 02:56:34;;;;;;;26.48;11.35;;;;;;;15.21;100.00;102079.00;5115954;28;20039;-57
2022/10/18 02:59:02;;;;;;;22.73;10.98;;;;;;;15.26;100.00;102082.94;5116393;28;20043;-57
2022/10/18 03:01:29;;;;;;;21.08;10.27;;;;;;;15.26;100.00;102079.41;5116359;28;20048;-57
2022/10/18 03:03:56;;;;;;;19.98;10.25;;;;;;;15.18;100.00;102074.81;5115711;28;20544;-57
2022/10/18 03:06:23;;;;;;;24.65;10.57;;;;;;;15.14;100.00;102076.13;5115703;28;20047;-57
2022/10/18 03:08:49;;;;;;;19.05;10.40;;;;;;;15.23;100.00;102085.06;5115520;28;20040;-57
2022/10/18 03:11:16;;;;;;;23.35;10.70;;;;;;;15.24;100.00;102081.38;5115853;28;20040;-57
2022/10/18 03:13:43;;;;;;;20.25;10.38;;;;;;;15.25;100.00;102075.06;5115796;28;20047;-57
2022/10/18 03:16:11;;;;;;;18.60;10.50;;;;;;;15.14;100.00;102073.44;5116114;28;20051;-57
2022/10/18 03:18:38;;;;;;;24.13;10.15;;;;;;;15.26;100.00;102074.91;5115674;28;20067;-57
2022/10/18 03:21:05;;;;;;;27.38;10.85;;;;;;;15.29;100.00;102079.09;5115770;28;20505;-57
2022/10/18 03:23:33;;;;;;;25.88;10.50;;;;;;;15.27;100.00;102076.56;5109769;28;20055;-57
2022/10/18 03:26:01;;;;;;;23.08;10.38;;;;;;;15.26;100.00;102077.59;5095182;28;20040;-57
2022/10/18 03:28:27;;;;;;;21.75;10.73;;;;;;;15.28;100.00;102078.28;5095098;28;20036;-57
2022/10/18 03:31:03;;;;;;;19.85;10.35;;;;;;;15.34;100.00;102077.66;5094697;28;20040;-57
2022/10/18 03:33:31;;;;;;;22.25;10.30;;;;;;;15.31;100.00;102080.63;5094926;28;20040;-57
2022/10/18 03:35:58;;;;;;;26.38;12.80;;;;;;;15.23;100.00;102082.41;5095321;28;20052;-57
2022/10/18 03:38:25;;;;;;;25.85;11.20;;;;;;;15.27;100.00;102083.75;5094788;28;20047;-57
2022/10/18 03:40:51;;;;;;;26.55;12.25;;;;;;;15.07;100.00;102080.38;5095195;28;20055;-57
2022/10/18 03:43:18;;;;;;;27.92;14.25;;;;;;;15.14;100.00;102078.78;5095011;28;20044;-57
2022/10/18 03:45:45;;;;;;;22.75;12.48;;;;;;;15.18;100.00;102074.81;5094991;28;20052;-57
2022/10/18 03:48:11;;;;;;;27.52;13.35;;;;;;;15.09;100.00;102075.72;5076959;28;20485;-57
2022/10/18 03:50:38;;;;;;;29.40;13.10;;;;;;;15.12;100.00;102075.44;5103144;28;20051;-57
2022/10/18 03:53:05;;;;;;;28.27;13.45;;;;;;;15.19;100.00;102078.31;5083156;28;20039;-57
2022/10/18 03:55:31;;;;;;;30.05;13.98;;;;;;;15.28;100.00;102075.59;5114144;28;20484;-57
2022/10/18 03:57:58;;;;;;;31.63;14.70;;;;;;;15.31;100.00;102077.94;5115301;28;20047;-57
2022/10/18 04:00:25;;;;;;;27.42;13.70;;;;;;;15.33;100.00;102077.78;5114974;28;20145;-57
2022/10/18 04:02:51;;;;;;;30.35;13.95;;;;;;;15.31;100.00;102082.47;5096695;28;20401;-57
2022/10/18 04:05:19;;;;;;;27.60;14.07;;;;;;;15.34;100.00;102077.66;5113838;28;20069;-57
2022/10/18 04:07:45;;;;;;;30.63;14.80;;;;;;;15.32;100.00;102068.94;5114837;28;20043;-57
2022/10/18 04:10:12;;;;;;;30.85;15.85;;;;;;;15.36;100.00;102077.50;5114482;28;20054;-57
2022/10/18 04:12:39;;;;;;;33.17;15.15;;;;;;;15.29;100.00;102079.94;5114062;28;20047;-57
2022/10/18 04:15:06;;;;;;;29.45;14.48;;;;;;;15.31;100.00;102077.94;5114477;28;20039;-57
2022/10/18 04:17:33;;;;;;;33.47;14.57;;;;;;;15.34;100.00;102083.00;5096287;28;20093;-57
2022/10/18 04:20:00;;;;;;;32.40;15.05;;;;;;;15.38;100.00;102077.34;5114619;28;20374;-57
2022/10/18 04:22:27;;;;;;;32.38;15.18;;;;;;;15.37;100.00;102079.16;5114473;28;20035;-57
2022/10/18 04:24:55;;;;;;;34.05;16.20;;;;;;;15.41;100.00;102082.38;5114275;28;20044;-57
2022/10/18 04:27:22;;;;;;;28.65;13.98;;;;;;;15.34;100.00;102079.50;5114259;28;20040;-57
2022/10/18 04:29:49;;;;;;;31.27;14.70;;;;;;;15.38;100.00;102078.19;5114420;28;20108;-57
2022/10/18 04:32:16;;;;;;;38.30;16.52;;;;;;;15.38;100.00;102085.38;5113591;28;20051;-57
2022/10/18 04:34:42;;;;;;;34.03;16.02;;;;;;;15.28;100.00;102080.06;5113182;28;20124;-57
2022/10/18 04:37:14;;;;;;;41.00;17.90;;;;;;;15.22;100.00;102088.72;5112311;28;20043;-57
2022/10/18 04:39:45;;;;;;;36.42;16.85;;;;;;;15.30;100.00;102088.81;5111967;28;20043;-57
2022/10/18 04:42:13;;;;;;;34.15;15.95;;;;;;;15.19;100.00;102089.00;5112239;28;20040;-57
2022/10/18 04:44:40;;;;;;;35.90;16.60;;;;;;;15.20;100.00;102088.88;5111905;28;20043;-57
2022/10/18 04:47:06;;;;;;;36.25;16.65;;;;;;;15.16;100.00;102082.97;5111949;28;20123;-57
2022/10/18 04:49:33;;;;;;;41.33;17.35;;;;;;;15.16;100.00;102092.84;5112603;28;20397;-57
2022/10/18 04:52:00;;;;;;;43.15;17.85;;;;;;;15.23;100.00;102093.91;5075876;28;20061;-56
2022/10/18 04:54:26;;;;;;;44.80;18.23;;;;;;;15.26;100.00;102096.28;5113759;28;20097;-57
2022/10/18 04:56:53;;;;;;;42.67;18.20;;;;;;;15.27;100.00;102087.25;5113721;28;20396;-57
2022/10/18 04:59:20;;;;;;;46.33;18.83;;;;;;;15.25;100.00;102091.09;5114086;28;20446;-57
2022/10/18 05:01:47;;;;;;;45.22;19.55;;;;;;;15.13;100.00;102095.81;5114038;28;20047;-57
2022/10/18 05:04:13;;;;;;;45.60;19.67;;;;;;;15.19;100.00;102094.34;5113081;28;20047;-57
2022/10/18 05:06:40;;;;;;;45.13;18.30;;;;;;;15.27;100.00;102092.63;5112831;28;20043;-57
2022/10/18 05:09:07;;;;;;;45.70;19.85;;;;;;;15.24;100.00;102090.22;5113242;28;20083;-57
2022/10/18 05:11:33;;;;;;;48.53;19.92;;;;;;;15.29;100.00;102087.13;5113702;28;20047;-57
2022/10/18 05:14:00;;;;;;;44.63;19.63;;;;;;;15.33;100.00;102091.16;5113226;28;20378;-57
2022/10/18 05:16:27;;;;;;;47.58;19.33;;;;;;;15.36;100.00;102090.88;5113621;28;20382;-57
2022/10/18 05:18:54;;;;;;;48.00;20.48;;;;;;;15.36;100.00;102091.69;5113339;28;20035;-57
2022/10/18 05:21:21;;;;;;;43.85;19.95;;;;;;;15.35;100.00;102087.34;5113658;28;20131;-57
2022/10/18 05:23:47;;;;;;;48.85;20.02;;;;;;;15.35;100.00;102092.72;5110910;28;20130;-56
2022/10/18 05:26:14;;;;;;;48.22;20.70;;;;;;;15.39;100.00;102092.38;5094897;28;20047;-56
2022/10/18 05:28:41;;;;;;;49.40;20.92;;;;;;;15.28;100.00;102088.97;5093039;28;20455;-59
2022/10/18 05:31:10;;;;;;;55.72;20.10;;;;;;;15.32;100.00;102093.00;5092017;28;20059;-56
2022/10/18 05:33:37;;;;;;;50.22;21.10;;;;;;;15.35;100.00;102086.50;5093065;28;20090;-57
2022/10/18 05:36:04;;;;;;;47.13;20.77;;;;;;;15.35;100.00;102089.16;5092860;28;20044;-56
2022/10/18 05:38:30;;;;;;;48.55;21.15;;;;;;;15.36;100.00;102096.22;5092558;28;20409;-56
2022/10/18 05:40:58;;;;;;;52.10;20.73;;;;;;;15.34;100.00;102101.72;5074781;28;20093;-56
2022/10/18 05:43:27;;;;;;;45.83;20.15;;;;;;;15.40;100.00;102099.41;5092582;28;20060;-56
2022/10/18 05:45:54;;;;;;;46.25;21.20;;;;;;;15.40;100.00;102104.78;5092604;28;20040;-56
2022/10/18 05:48:22;;;;;;;54.00;21.13;;;;;;;15.32;100.00;102103.69;5074532;28;20455;-56
2022/10/18 05:50:48;;;;;;;56.00;20.85;;;;;;;15.31;100.00;102102.00;5096774;28;20479;-57
2022/10/18 05:53:15;;;;;;;45.53;21.23;;;;;;;15.34;100.00;102087.50;5051521;28;20040;-57
2022/10/18 05:56:02;;;;;;;44.80;20.33;;;;;;;15.38;100.00;102096.06;5112299;28;20059;-56
2022/10/18 05:58:29;;;;;;;47.28;20.42;;;;;;;15.38;100.00;102096.06;5112960;28;20085;-56
2022/10/18 06:00:58;;;;;;;50.08;20.35;;;;;;;15.31;100.00;102096.66;5112771;28;20047;-56
2022/10/18 06:03:29;;;;;;;46.50;21.15;;;;;;;15.24;100.00;102110.78;5112575;28;20043;-56
2022/10/18 06:06:03;;;;;;;47.72;20.70;;;;;;;15.17;100.00;102105.19;5112597;28;20047;-57
2022/10/18 06:08:31;;;;;;;51.92;21.70;;;;;;;15.23;100.00;102109.13;5113054;28;20052;-57
2022/10/18 06:10:58;;;;;;;51.35;22.65;;;;;;;15.13;100.00;102106.50;5112939;28;20048;-57
2022/10/18 06:13:25;;;;;;;51.60;22.85;;;;;;;15.17;100.00;102105.19;5094602;28;20398;-57
2022/10/18 06:15:55;;;;;;;54.20;23.55;;;;;;;15.23;100.00;102114.47;5094798;28;20035;-57
2022/10/18 06:18:22;;;;;;;55.75;23.50;;;;;;;15.31;100.00;102122.56;5114881;28;20118;-57
2022/10/18 06:20:55;;;;;;;49.65;23.83;;;;;;;15.25;100.00;102110.63;5117195;28;20100;-57
2022/10/18 06:23:22;;;;;;;46.95;23.33;;;;;;;15.28;100.00;102122.84;5116690;28;20083;-57
2022/10/18 06:25:48;;;;;;;50.25;24.15;;;;;;;15.31;100.00;102114.53;5116858;28;20051;-57
2022/10/18 06:28:15;;;;;;;52.58;24.08;;;;;;;15.23;100.00;102120.66;5116542;28;20047;-57
2022/10/18 06:30:43;;;;;;;54.83;24.15;;;;;;;15.27;100.00;102119.34;5116408;28;20052;-57
2022/10/18 06:33:11;;;;;;;54.65;24.30;;;;;;;15.31;100.00;102117.22;5115875;28;20043;-57
2022/10/18 06:35:37;;;;;;;55.03;24.08;;;;;;;15.27;100.00;102131.88;5116641;28;20040;-57
2022/10/18 06:38:05;;;;;;;59.65;25.90;;;;;;;15.24;100.00;102137.53;5098449;28;20051;-57
2022/10/18 06:40:36;;;;;;;52.08;25.83;;;;;;;15.23;100.00;102142.03;5116546;28;20384;-57
2022/10/18 06:43:05;;;;;;;56.22;26.23;;;;;;;15.30;100.00;102147.63;5116162;28;20043;-57
2022/10/18 06:45:42;;;;;;;52.83;24.75;;;;;;;15.23;100.00;102141.19;5116254;28;20043;-57
2022/10/18 06:48:08;;;;;;;63.20;26.50;;;;;;;15.18;100.00;102144.31;5116649;28;20446;-57
2022/10/18 06:50:35;;;;;;;58.00;26.55;;;;;;;15.25;100.00;102147.22;5116151;28;20661;-57
2022/10/18 06:53:04;;;;;;;56.65;26.02;;;;;;;15.25;100.00;102145.38;5078099;28;20071;-57
2022/10/18 06:55:31;;;;;;;55.95;25.33;;;;;;;15.26;100.00;102141.75;5116106;28;20048;-57
2022/10/18 06:57:58;;;;;;;54.95;25.33;;;;;;;15.27;100.00;102140.72;5116141;28;20047;-57
2022/10/18 07:00:24;;;;;;;55.83;25.40;;;;;;;15.36;100.00;102147.84;5097681;28;20393;-57
2022/10/18 07:02:51;;;;;;;61.15;25.80;;;;;;;15.31;100.00;102155.47;5116002;28;20096;-57
2022/10/18 07:05:18;;;;;;;64.72;26.73;;;;;;;15.28;100.00;102162.94;5115250;28;20044;-57
2022/10/18 07:07:44;;;;;;;51.35;25.73;;;;;;;15.22;100.00;102164.41;5109756;28;20101;-60
2022/10/18 07:10:11;;;;;;;56.13;25.80;;;;;;;15.32;100.00;102164.34;5076249;27;20052;-61
2022/10/18 07:12:38;;;;;;;59.45;26.67;;;;;;;15.26;100.00;102164.94;5109802;28;20040;-60
2022/10/18 07:15:05;;;;;;;59.20;25.67;;;;;;;15.22;100.00;102164.41;5105715;28;20127;-61
2022/10/18 07:17:34;;;;;;;59.25;26.63;;;;;;;15.39;100.00;102167.25;5112584;28;20046;-60
2022/10/18 07:20:03;;;;;;;54.88;26.02;;;;;;;15.39;100.00;102167.25;5106149;28;20051;-61
2022/10/18 07:22:29;;;;;;;52.63;25.48;;;;;;;15.24;100.00;102170.44;5112103;28;20052;-60
2022/10/18 07:24:56;;;;;;;60.38;27.63;;;;;;;15.35;100.00;102177.41;5084970;27;20075;-61
2022/10/18 07:27:23;;;;;;;61.00;27.52;;;;;;;15.31;100.00;102181.38;5088624;28;20028;-61
2022/10/18 07:29:50;;;;;;;58.00;25.88;;;;;;;15.35;100.00;102180.94;5101469;28;20050;-60
2022/10/18 07:32:17;;;;;;;65.93;28.10;;;;;;;15.42;100.00;102194.53;5097704;28;20052;-60
2022/10/18 07:34:43;;;;;;;62.58;30.63;;;;;;;15.35;100.00;102201.47;5099527;28;20435;-61
2022/10/18 07:37:10;;;;;;;64.30;29.20;;;;;;;15.38;100.00;102195.00;5083021;28;20043;-61
2022/10/18 07:39:37;;;;;;;64.15;28.30;;;;;;;15.39;100.00;102199.31;5098872;28;20043;-60
2022/10/18 07:42:03;;;;;;;63.08;28.40;;;;;;;15.33;100.00;102204.31;5081452;28;20048;-57
2022/10/18 07:44:30;;;;;;;72.07;31.05;;;;;;;15.31;100.00;102208.09;5113970;28;20408;-57
2022/10/18 07:46:57;;;;;;;57.35;28.38;;;;;;;15.32;100.00;102202.63;5084748;28;20043;-57
2022/10/18 07:49:24;;;;;;;74.93;30.52;;;;;;;15.40;100.00;102199.19;5108934;28;20051;-57
2022/10/18 07:51:50;;;;;;;75.90;32.38;;;;;;;15.37;100.00;102207.50;5042645;28;20063;-57
2022/10/18 07:54:17;;;;;;;73.60;31.77;;;;;;;15.32;100.00;102215.16;5111807;28;20040;-57
2022/10/18 07:56:44;;;;;;;73.60;30.75;;;;;;;15.34;100.00;102214.00;5083439;28;20039;-57
2022/10/18 07:59:11;;;;;;;73.88;30.88;;;;;;;15.35;100.00;102226.38;5101132;28;20126;-57
2022/10/18 08:01:37;;;;;;;78.93;32.78;;;;;;;15.47;100.00;102223.50;5074887;28;20047;-57
2022/10/18 08:04:04;;;;;;;76.75;32.20;;;;;;;15.52;100.00;102213.19;5108803;28;20707;-58
2022/10/18 08:06:33;;;;;;;68.82;29.88;;;;;;;15.59;100.00;102218.75;5087957;28;20043;-57
2022/10/18 08:09:00;;;;;;;58.70;28.27;;;;;;;15.59;100.00;102226.78;5109687;28;20683;-57
2022/10/18 08:11:26;;;;;;;70.80;30.30;;;;;;;15.60;100.00;102225.81;5084909;27;20046;-57
2022/10/18 08:13:53;;;;;;;67.05;30.38;;;;;;;15.65;100.00;102234.22;5109243;28;20120;-57
2022/10/18 08:16:28;;;;;;;72.43;31.42;;;;;;;15.52;100.00;102239.94;5101555;28;20054;-57
2022/10/18 08:18:57;;;;;;;74.78;32.63;;;;;;;15.49;100.00;102238.41;5109519;28;20040;-57
2022/10/18 08:21:24;;;;;;;92.22;34.70;;;;;;;15.52;100.00;102238.09;5106024;28;20084;-57
2022/10/18 08:23:52;;;;;;;84.43;34.22;;;;;;;15.51;100.00;102240.91;5112608;28;20126;-57
2022/10/18 08:26:21;;;;;;;74.63;33.38;;;;;;;15.59;100.00;102243.69;5092488;28;20064;-58
2022/10/18 08:28:48;;;;;;;90.78;35.75;;;;;;;15.57;100.00;102245.66;5113733;28;20043;-57
2022/10/18 08:31:19;;;;;;;89.80;36.67;;;;;;;15.61;100.00;102243.53;5109364;28;20048;-57
2022/10/18 08:33:46;;;;;;;92.75;35.55;;;;;;;15.58;100.00;102250.03;5105360;28;20101;-57
2022/10/18 08:36:14;;;;;;;96.60;36.65;;;;;;;15.65;100.00;102258.31;5113388;28;20039;-57
2022/10/18 08:38:42;;;;;;;92.13;36.42;;;;;;;15.59;100.00;102265.09;5096799;28;20059;-57
2022/10/18 08:44:22;;;;;;;91.70;35.35;;;;;;;15.59;100.00;102273.13;5107897;27;20817;-56
2022/10/18 08:46:57;;;;;;;89.50;37.10;;;;;;;15.62;100.00;102266.63;5040064;28;20418;-58
2022/10/18 08:49:30;;;;;;;96.43;38.47;;;;;;;15.58;100.00;102279.44;5039891;28;20049;-57
2022/10/18 08:51:57;;;;;;;97.28;38.35;;;;;;;15.62;100.00;102280.00;5008903;28;20128;-57
2022/10/18 08:54:33;;;;;;;100.55;38.20;;;;;;;15.70;100.00;102277.44;5057207;28;20063;-57
2022/10/18 08:57:06;;;;;;;104.88;39.42;;;;;;;15.85;100.00;102272.44;5034574;28;20040;-57
2022/10/18 08:59:38;;;;;;;107.68;40.35;;;;;;;15.77;100.00;102270.50;5045248;28;20044;-58
2022/10/18 09:02:34;;;;;;;113.55;41.25;;;;;;;15.76;100.00;102273.34;5064410;28;20040;-57
2022/10/18 09:05:30;;;;;;;112.50;43.25;;;;;;;15.78;100.00;102271.34;5036570;28;20073;-57
2022/10/18 09:10:42;;;;;;;121.07;44.22;;;;;;;15.73;100.00;102267.25;5090715;27;20126;-56
2022/10/18 09:13:42;;;;;;;131.43;47.40;;;;;;;15.82;100.00;102275.41;5037003;28;20047;-56
2022/10/18 09:16:15;;;;;;;140.48;47.65;;;;;;;15.92;100.00;102278.84;5052374;28;20410;-56
2022/10/18 09:19:03;;;;;;;140.00;49.85;;;;;;;15.95;100.00;102280.38;5053767;28;20041;-56
2022/10/18 09:24:11;;;;;;;129.40;49.17;;;;;;;16.11;100.00;102284.03;5114398;27;20209;-56
2022/10/18 09:26:44;;;;;;;134.23;50.53;;;;;;;16.24;100.00;102291.69;5111047;28;20519;-56
2022/10/18 09:29:41;;;;;;;108.57;45.13;;;;;;;16.20;100.00;102292.16;5110266;28;20485;-56
2022/10/18 09:32:37;;;;;;;111.15;48.03;;;;;;;16.18;100.00;102296.84;5103224;28;20046;-56
2022/10/18 09:35:24;;;;;;;121.35;46.25;;;;;;;16.25;100.00;102289.88;5110225;28;20048;-57
2022/10/18 09:37:59;;;;;;;117.72;44.47;;;;;;;16.23;100.00;102300.72;5102373;28;20044;-56
2022/10/18 09:40:28;;;;;;;110.93;44.97;;;;;;;16.12;100.00;102309.00;5109447;28;20044;-57
2022/10/18 09:43:05;;;;;;;106.93;43.35;;;;;;;16.04;100.00;102308.91;5104670;28;20047;-57
2022/10/18 09:45:38;;;;;;;113.93;45.97;;;;;;;16.08;100.00;102307.59;5107797;28;20048;-56
2022/10/18 09:48:16;;;;;;;100.28;44.60;;;;;;;16.04;100.00;102306.22;5106652;28;20061;-56
2022/10/18 09:50:50;;;;;;;100.47;43.42;;;;;;;16.09;100.00;102312.81;5101209;28;20409;-58
2022/10/18 09:53:50;;;;;;;104.65;45.90;;;;;;;15.95;100.00;102307.97;5082223;28;20489;-57
2022/10/18 09:56:25;;;;;;;110.97;47.13;;;;;;;16.04;100.00;102312.41;5109766;28;20051;-57
2022/10/18 09:58:52;;;;;;;110.30;46.67;;;;;;;16.08;100.00;102304.91;5099064;28;20063;-57
2022/10/18 10:01:23;;;;;;;151.35;54.88;;;;;;;15.99;100.00;102308.50;5105602;28;20443;-57
2022/10/18 10:03:50;;;;;;;136.02;51.42;;;;;;;15.99;100.00;102324.56;5104913;28;20066;-59
2022/10/18 10:06:25;;;;;;;139.98;52.88;;;;;;;16.09;100.00;102325.34;5108452;28;20040;-57
2022/10/18 10:08:57;;;;;;;143.10;52.17;;;;;;;16.03;100.00;102321.44;5095310;28;20489;-56
2022/10/18 10:11:33;;;;;;;;;;;;;;;15.97;100.00;102318.53;5093526;28;20485;-56
2022/10/18 10:14:09;;;;;;;189.65;59.80;;;;;;;15.93;100.00;102318.84;5121589;28;19923;-56
2022/10/18 10:16:55;;;;;;;220.40;66.85;;;;;;;16.01;100.00;102326.13;5107250;27;20050;-56
2022/10/18 10:19:46;;;;;;;226.27;66.90;;;;;;;15.98;100.00;102326.41;5109952;28;20048;-56
2022/10/18 10:22:13;;;;;;;248.23;68.68;;;;;;;16.02;100.00;102333.13;5105961;28;20063;-57
2022/10/18 10:24:47;;;;;;;237.38;68.93;;;;;;;16.15;100.00;102332.75;5107353;28;20444;-57
2022/10/18 10:27:27;;;;;;;240.15;71.93;;;;;;;16.36;100.00;102332.47;5103102;28;20583;-56
2022/10/18 10:29:56;;;;;;;235.98;71.50;;;;;;;16.30;100.00;102328.56;5108408;28;20040;-57
2022/10/18 10:32:26;;;;;;;237.10;67.10;;;;;;;16.11;100.00;102334.06;5100276;28;20070;-57
2022/10/18 10:34:58;;;;;;;237.57;68.65;;;;;;;16.13;100.00;102342.78;5098278;28;20074;-59
2022/10/18 10:37:28;;;;;;;243.13;69.40;;;;;;;16.15;100.00;102340.78;5086866;28;20079;-57
2022/10/18 10:40:05;;;;;;;230.35;65.38;;;;;;;16.27;100.00;102344.09;5089420;28;20048;-57
2022/10/18 10:43:05;;;;;;;235.45;65.18;;;;;;;16.29;100.00;102342.94;5081067;28;20040;-57
2022/10/18 10:45:37;;;;;;;240.57;65.15;;;;;;;16.35;100.00;102338.81;5092439;28;20043;-57
2022/10/18 10:48:15;;;;;;;240.70;67.18;;;;;;;16.30;100.00;102343.81;5089255;28;20550;-57
2022/10/18 10:50:50;;;;;;;235.40;66.28;;;;;;;16.62;100.00;102342.41;5091660;28;20036;-57
2022/10/18 10:53:26;;;;;;;217.13;63.30;;;;;;;16.44;100.00;102335.22;5072181;28;20036;-57
2022/10/18 10:55:56;;;;;;;243.80;80.45;;;;;;;16.38;100.00;102335.84;5094276;28;20048;-52
2022/10/18 10:58:26;;;;;;;211.05;62.90;;;;;;;16.57;100.00;102329.47;5085695;28;20089;-53
2022/10/18 11:00:56;;;;;;;210.98;59.80;;;;;;;16.50;100.00;102328.41;5092759;28;20036;-53
2022/10/18 11:03:23;;;;;;;207.00;62.27;;;;;;;16.60;100.00;102333.69;5089764;28;20048;-54
2022/10/18 11:05:56;;;;;;;193.98;56.33;;;;;;;16.46;100.00;102337.72;5091221;28;20051;-54
2022/10/18 11:08:27;;;;;;;170.43;51.83;;;;;;;16.41;100.00;102340.03;5080191;28;20039;-54
2022/10/18 11:11:20;;;;;;;160.70;50.28;;;;;;;16.39;100.00;102336.66;5093176;28;20126;-57
2022/10/18 11:16:31;;;;;;;150.82;47.28;;;;;;;16.72;100.00;102342.28;5081566;27;20115;-56
2022/10/18 11:19:02;;;;;;;142.68;44.92;;;;;;;16.95;100.00;102342.66;5030903;28;20041;-56
2022/10/18 11:21:31;;;;;;;132.35;43.90;;;;;;;17.34;100.00;102339.56;5046399;28;20041;-56
2022/10/18 11:24:01;;;;;;;106.60;39.38;;;;;;;17.37;95.77;102340.09;5042910;28;20784;-58
2022/10/18 11:26:40;;;;;;;101.18;38.15;;;;;;;17.51;93.74;102343.16;5053413;28;20367;-55
2022/10/18 11:29:38;;;;;;;90.50;37.08;;;;;;;18.33;89.62;102343.41;5056922;28;20123;-56
2022/10/18 11:32:22;;;;;;;83.75;33.90;;;;;;;19.69;83.47;102337.28;5061186;28;20119;-56
2022/10/18 11:37:54;;;;;;;71.00;30.52;;;;;;;22.45;66.85;102332.09;5110394;27;20157;-56
2022/10/18 11:40:47;;;;;;;64.07;31.77;;;;;;;22.38;64.05;102340.13;5086353;28;20032;-57
2022/10/18 11:43:24;;;;;;;54.90;26.08;;;;;;;22.78;61.83;102340.47;5079131;28;20038;-57